Погода Поминовона 2 недели

Тверская область, Россия

19 мая-01 июня
  • 19мая
    Сегодня
    +9°
    +23°
    Ясно и безоблачно
    ВремяПогодаТемператураВлажностьДавлениеВетер, м/сВероятность осадков
    00:00Ясно и безоблачно+10°C66 %754 мм0.1 м/с2 %
    03:00Ясно и безоблачно+6°C72 %754 мм0.0 м/с2 %
    06:00Ясно и безоблачно+8°C77 %754 мм0.0 м/с2 %
    09:00Ясно и безоблачно+16°C60 %754 мм0.7 м/с2 %
    12:00Ясно и безоблачно+21°C45 %753 мм1.0 м/с2 %
    15:00Ясно и безоблачно+23°C37 %752 мм0.5 м/с2 %
    18:00Ясно и безоблачно+22°C39 %751 мм0.3 м/с2 %
    21:00Ясно и безоблачно+16°C63 %751 мм0.3 м/с2 %
  • 20мая
    Понедельник
    +9°
    +24°
    Практически безоблачно
    ВремяПогодаТемператураВлажностьДавлениеВетер, м/сВероятность осадков
    00:00Ясно и безоблачно+12°C67 %751 мм0.4 м/с2 %
    03:00Ясно и безоблачно+10°C74 %751 мм1.0 м/с2 %
    06:00Облачно с прояснениями+11°C75 %751 мм0.5 м/с2 %
    09:00Небольшая облачность+18°C63 %752 мм1.3 м/с2 %
    12:00Ясно и безоблачно+24°C49 %751 мм1.5 м/с2 %
    15:00Практически безоблачно+24°C43 %751 мм1.6 м/с3 %
    18:00Практически безоблачно+23°C45 %751 мм0.8 м/с7 %
    21:00Практически безоблачно+17°C69 %751 мм0.2 м/с3 %
  • 21мая
    Вторник
    +8°
    +23°
    Пасмурно, дожди с грозами
    ВремяПогодаТемператураВлажностьДавлениеВетер, м/сВероятность осадков
    00:00Ясно и безоблачно+12°C85 %751 мм0.0 м/с2 %
    03:00Ясно и безоблачно+10°C92 %752 мм0.0 м/с2 %
    06:00Ясно и безоблачно+12°C90 %752 мм0.0 м/с3 %
    09:00Практически безоблачно+19°C73 %753 мм0.1 м/с6 %
    12:00Ясно и безоблачно+22°C70 %753 мм0.7 м/с33 %
    15:00Пасмурно, дожди с грозами+22°C55 %753 мм1.1 м/с50 %
    18:00Небольшая облачность+22°C73 %753 мм0.2 м/с44 %
    21:00Облачно с прояснениями+16°C90 %753 мм0.0 м/с9 %
  • 22мая
    Среда
    +6°
    +21°
    Ясно и безоблачно
    ВремяПогодаТемператураВлажностьДавлениеВетер, м/сВероятность осадков
    00:00Практически безоблачно+12°C87 %753 мм0.0 м/с3 %
    03:00Ясно и безоблачно+9°C81 %754 мм0.0 м/с4 %
    06:00Ясно и безоблачно+9°C69 %755 мм0.9 м/с5 %
    09:00Ясно и безоблачно+17°C54 %755 мм1.2 м/с4 %
    12:00Ясно и безоблачно+20°C42 %756 мм1.5 м/с2 %
    15:00Ясно и безоблачно+21°C40 %756 мм1.8 м/с2 %
    18:00Ясно и безоблачно+20°C42 %756 мм2.3 м/с2 %
    21:00Ясно и безоблачно+14°C48 %757 мм2.5 м/с2 %
  • 23мая
    Четверг
    +4°
    +19°
    Ясно и безоблачно
    ВремяПогодаТемператураВлажностьДавлениеВетер, м/сВероятность осадков
    00:00Ясно и безоблачно+10°C54 %758 мм1.4 м/с2 %
    03:00Ясно и безоблачно+8°C52 %759 мм0.8 м/с2 %
    06:00Ясно и безоблачно+7°C56 %761 мм0.6 м/с2 %
    09:00Ясно и безоблачно+14°C36 %761 мм2.2 м/с2 %
    12:00Ясно и безоблачно+17°C32 %762 мм1.7 м/с5 %
    15:00Ясно и безоблачно+18°C33 %762 мм1.3 м/с4 %
    18:00Ясно и безоблачно+18°C36 %761 мм0.9 м/с5 %
    21:00Ясно и безоблачно+12°C56 %761 мм0.4 м/с2 %
Мы используем cookies
Соглашаюсь